Latest Weather Observations for Kalgoorlie-Boulder

IDW60801

Issued at 12:32 pm WST Saturday 4 July 2015 (issued every 30 minutes, with the page automatically refreshed every 10 minutes)

About weather observations | Map of weather stations | Latest weather observations for WA | Other Formats
Station Details ID: 012038 Name: KALGOORLIE-BOULDER AIRPORT Lat: -30.78 Lon: 121.45 Height: 365.3 m
Data from the previous 72 hours. | See also: Recent months at Kalgoorlie-Boulder
Date/Time
WST
Temp
°C
App
Temp
°C
Dew
Point
Rel
Hum
%
Delta-T
°C
Wind Press
QNH
hPa
Press
MSL
hPa
Rain
since 9 am
mm
Dir
 
Spd
km/h
Gust
km/h
Spd
kts
Gust
kts
04/12:30pm 19.9 17.2 8.8 48 5.9 W 13 24 7 13 1021.4 - 0.0
04/12:00pm 19.2 16.5 9.1 52 5.4 NW 13 19 7 10 1021.8 1022.0 0.0
04/11:30am 18.5 15.8 8.8 53 5.1 W 13 20 7 11 1022.3 - 0.0
04/11:00am 17.6 15.9 10.0 61 4.1 W 9 15 5 8 1022.8 - 0.0
04/10:30am 17.4 16.5 10.6 64 3.7 NW 6 9 3 5 1023.1 - 0.0
04/10:00am 16.0 15.1 10.6 70 2.9 NW 6 9 3 5 1023.5 - 0.0
04/09:30am 14.8 13.7 9.9 72 2.6 NNE 6 9 3 5 1023.6 - 0.0
04/09:00am 14.0 13.9 9.4 74 2.4 CALM 0 6 0 3 1023.4 1023.5 0.0
04/08:30am 11.7 11.4 8.5 81 1.6 CALM 0 0 0 0 1023.4 - 0.0
04/08:00am 10.3 9.9 8.3 87 1.0 CALM 0 0 0 0 1023.5 - 0.0
04/07:30am 8.0 7.4 7.2 95 0.4 CALM 0 0 0 0 1023.4 - 0.0
04/07:00am 6.8 5.9 6.1 95 0.3 CALM 0 0 0 0 1023.0 - 0.0
04/06:30am 7.7 5.7 7.1 96 0.3 NW 7 7 4 4 1022.8 - 0.0
04/06:00am 7.6 5.2 7.0 96 0.3 WNW 9 11 5 6 1022.5 1022.7 0.0
04/05:30am 7.1 4.9 6.2 94 0.4 NW 7 9 4 5 1022.2 - 0.0
04/05:00am 7.2 6.4 6.3 94 0.4 CALM 0 0 0 0 1022.1 - 0.0
04/04:30am 7.7 7.0 7.1 96 0.3 CALM 0 0 0 0 1022.1 - 0.0
04/04:00am 8.2 7.5 7.1 93 0.5 CALM 0 0 0 0 1022.1 - 0.0
04/03:30am 8.4 7.7 6.9 90 0.7 CALM 0 0 0 0 1022.2 - 0.0
04/03:00am 9.4 7.8 8.0 91 0.7 NW 6 7 3 4 1022.2 1022.4 0.0
04/02:30am 9.0 8.4 7.5 90 0.7 CALM 0 0 0 0 1022.3 - 0.0
04/02:00am 9.2 8.6 7.5 89 0.8 CALM 0 0 0 0 1022.4 - 0.0
04/01:30am 9.3 8.7 7.4 88 0.9 CALM 0 0 0 0 1022.6 - 0.0
04/01:00am 10.4 7.9 8.2 86 1.1 SW 11 15 6 8 1022.6 - 0.0
04/12:30am 10.7 8.6 8.3 85 1.2 SW 9 11 5 6 1022.5 - 0.0
04/12:00am 11.3 9.3 8.5 83 1.4 SW 9 11 5 6 1022.6 1022.8 0.0
 
Date/Time
WST
Temp
°C
App
Temp
°C
Dew
Point
Rel
Hum
%
Delta-T
°C
Wind Press
QNH
hPa
Press
MSL
hPa
Rain
since 9 am
mm
Dir
 
Spd
km/h
Gust
km/h
Spd
kts
Gust
kts
03/11:30pm 11.5 9.0 8.3 81 1.6 SW 11 13 6 7 1022.9 - 0.0
03/11:00pm 12.0 9.6 8.6 80 1.7 SW 11 13 6 7 1023.4 - 0.0
03/10:30pm 12.3 10.3 8.5 77 1.9 SW 9 11 5 6 1023.4 - 0.0
03/10:00pm 13.0 10.6 8.7 75 2.2 SW 11 13 6 7 1023.2 - 0.0
03/09:30pm 13.3 10.5 8.6 73 2.4 SW 13 17 7 9 1023.1 - 0.0
03/09:00pm 14.1 11.3 8.4 68 2.9 SW 13 17 7 9 1023.2 1023.4 0.0
03/08:30pm 14.3 11.8 8.4 67 3.0 SW 11 15 6 8 1022.9 - 0.0
03/08:00pm 15.4 12.6 8.4 63 3.6 SW 13 17 7 9 1022.9 - 0.0
03/07:30pm 15.4 12.9 8.2 62 3.7 SSW 11 15 6 8 1022.7 - 0.0
03/07:00pm 16.6 13.7 8.0 57 4.4 SSW 13 19 7 10 1022.6 - 0.0
03/06:30pm 17.5 14.1 7.8 53 5.0 SSW 15 19 8 10 1022.4 - 0.0
03/06:00pm 18.1 15.0 7.1 48 5.6 SW 13 17 7 9 1022.0 1022.2 0.0
03/05:30pm 18.5 15.3 6.9 46 5.9 SW 13 19 7 10 1021.6 - 0.0
03/05:00pm 20.1 16.0 6.3 40 7.0 SW 17 20 9 11 1021.3 - 0.0
03/04:30pm 21.4 17.2 5.6 35 8.0 WSW 17 22 9 12 1021.1 - 0.0
03/04:00pm 22.3 17.0 2.9 28 9.4 WSW 20 28 11 15 1020.8 - 0.0
03/03:30pm 22.8 17.2 1.4 24 10.1 WNW 20 24 11 13 1020.7 - 0.0
03/03:00pm 22.7 17.7 1.2 24 10.1 SW 17 22 9 12 1020.6 1020.7 0.0
03/02:30pm 23.1 18.5 1.3 23 10.3 NW 15 22 8 12 1020.7 - 0.0
03/02:00pm 23.2 18.6 1.5 24 10.3 WNW 15 22 8 12 1020.6 - 0.0
03/01:30pm 22.7 17.8 2.3 26 9.8 W 17 24 9 13 1020.9 - 0.0
03/01:00pm 22.7 18.2 2.2 26 9.8 W 15 20 8 11 1021.2 - 0.0
03/12:30pm 21.8 17.3 2.3 27 9.3 WSW 15 22 8 12 1021.5 - 0.0
03/12:00pm 21.4 17.2 1.9 27 9.2 W 13 20 7 11 1022.0 1022.2 0.0
03/11:30am 20.4 16.4 0.7 27 9.0 W 11 19 6 10 1022.5 - 0.0
03/11:00am 19.8 15.4 0.6 27 8.7 NW 13 19 7 10 1022.8 - 0.0
03/10:30am 19.2 15.2 0.6 28 8.4 NW 11 17 6 9 1023.0 - 0.0
03/10:00am 17.9 13.4 0.0 30 7.9 NNW 13 17 7 9 1023.4 - 0.0
03/09:30am 16.7 12.5 -0.8 30 7.5 N 11 17 6 9 1023.4 - 0.0
03/09:00am 15.0 11.6 -0.6 34 6.6 N 7 13 4 7 1023.4 1023.5 0.0
03/08:30am 13.0 9.8 0.6 42 5.3 NNE 7 15 4 8 1023.0 - 0.0
03/08:00am 10.6 7.6 2.3 56 3.6 N 7 11 4 6 1022.9 - 0.0
03/07:30am 10.5 7.6 2.5 57 3.5 N 7 9 4 5 1022.8 - 0.0
03/07:00am 10.6 7.7 2.6 57 3.5 NW 7 7 4 4 1023.0 - 0.0
03/06:30am 9.6 6.4 3.2 64 2.8 W 9 11 5 6 1022.9 - 0.0
03/06:00am 9.6 7.8 3.5 66 2.7 ESE 2 6 1 3 1022.5 1022.7 0.0
03/05:30am 9.5 6.7 3.4 65 2.7 ESE 7 9 4 5 1022.4 - 0.0
03/05:00am 9.9 6.3 3.1 62 3.0 SE 11 13 6 7 1022.6 - 0.0
03/04:30am 10.5 7.3 3.3 61 3.2 SE 9 11 5 6 1022.8 - 0.0
03/04:00am 10.5 7.4 3.6 62 3.1 SE 9 11 5 6 1022.9 - 0.0
03/03:30am 10.7 8.0 3.5 61 3.2 SSE 7 9 4 5 1023.4 - 0.0
03/03:00am 12.0 8.5 3.3 55 3.9 SE 11 13 6 7 1023.6 1023.7 0.0
03/02:30am 11.6 7.7 3.6 58 3.6 ESE 13 15 7 8 1023.7 - 0.0
03/02:00am 12.0 7.7 3.3 55 3.9 ESE 15 17 8 9 1023.8 - 0.0
03/01:30am 12.4 8.9 3.3 54 4.1 E 11 13 6 7 1023.9 - 0.0
03/01:00am 12.7 9.1 3.2 52 4.3 ESE 11 13 6 7 1024.2 - 0.0
03/12:30am 13.1 9.9 2.9 50 4.6 SSE 9 11 5 6 1024.7 - 0.0
03/12:00am 12.8 10.3 3.8 54 4.1 SSE 6 9 3 5 1025.0 1025.2 0.0
 
Date/Time
WST
Temp
°C
App
Temp
°C
Dew
Point
Rel
Hum
%
Delta-T
°C
Wind Press
QNH
hPa
Press
MSL
hPa
Rain
since 9 am
mm
Dir
 
Spd
km/h
Gust
km/h
Spd
kts
Gust
kts
02/11:30pm 13.0 10.3 3.6 53 4.3 S 7 9 4 5 1025.1 - 0.0
02/11:00pm 13.6 10.3 2.7 47 4.9 SSE 9 11 5 6 1025.0 - 0.0
02/10:30pm 13.5 9.7 1.9 45 5.1 S 11 15 6 8 1025.3 - 0.0
02/10:00pm 13.9 9.7 1.6 43 5.4 S 13 17 7 9 1025.3 - 0.0
02/09:30pm 14.0 9.0 1.2 41 5.6 S 17 20 9 11 1025.3 - 0.0
02/09:00pm 13.6 9.9 2.1 45 5.1 S 11 13 6 7 1025.1 1025.3 0.0
02/08:30pm 14.4 11.1 2.7 45 5.3 S 9 13 5 7 1024.7 - 0.0
02/08:00pm 14.5 9.7 2.5 44 5.4 ESE 17 20 9 11 1024.1 - 0.0
02/07:30pm 15.0 10.1 2.1 41 5.8 E 17 20 9 11 1023.8 - 0.0
02/07:00pm 15.3 11.6 2.2 41 5.9 SE 11 15 6 8 1024.5 - 0.0
02/06:30pm 16.4 12.2 1.5 36 6.7 SE 13 19 7 10 1024.4 - 0.0
02/06:00pm 16.8 12.9 1.1 34 7.0 S 11 15 6 8 1024.1 1024.3 0.0
02/05:30pm 17.4 14.9 1.8 35 7.1 E 4 9 2 5 1023.9 - 0.0
02/05:00pm 17.9 15.5 2.3 35 7.2 NE 4 7 2 4 1023.9 - 0.0
02/04:30pm 19.4 17.6 3.5 35 7.6 N 2 6 1 3 1023.9 - 0.0
02/04:00pm 20.9 17.7 -0.2 24 9.5 NW 6 9 3 5 1024.1 - 0.0
02/03:30pm 20.8 17.4 -0.4 24 9.5 NNW 7 11 4 6 1024.0 - 0.0
02/03:00pm 20.9 17.1 -0.6 23 9.6 NW 9 13 5 7 1024.1 1024.3 0.0
02/02:30pm 21.0 16.8 -1.2 22 9.8 N 11 17 6 9 1024.2 - 0.0
02/02:00pm 20.9 15.8 -1.8 21 9.9 N 15 19 8 10 1024.2 - 0.0
02/01:30pm 21.2 17.4 -0.8 23 9.9 N 9 15 5 8 1024.2 - 0.0
02/01:00pm 20.3 16.1 -0.7 24 9.4 N 11 15 6 8 1024.4 - 0.0
02/12:30pm 20.1 14.7 -1.5 23 9.5 N 17 24 9 13 1024.6 - 0.0
02/12:00pm 20.3 15.3 -1.5 23 9.5 N 15 24 8 13 1025.6 1025.8 0.0
02/11:30am 20.4 15.0 -1.3 23 9.6 N 17 24 9 13 1026.1 - 0.0
02/11:00am 19.3 13.9 -1.2 25 9.0 N 17 26 9 14 1026.5 - 0.0
02/10:30am 18.7 12.4 -1.2 26 8.7 N 22 32 12 17 1026.9 - 0.0
02/10:00am 18.9 12.1 -1.6 25 8.9 N 24 33 13 18 1027.1 - 0.0
02/09:30am 17.6 10.8 -2.2 26 8.3 N 24 32 13 17 1027.1 - 0.0
02/09:00am 16.6 10.8 -1.4 29 7.6 N 19 26 10 14 1027.0 1027.2 0.0
02/08:30am 15.6 10.6 -1.0 32 7.0 N 15 20 8 11 1027.0 - 0.0
02/08:00am 14.7 9.8 -0.8 34 6.6 N 15 20 8 11 1026.8 - 0.0
02/07:30am 14.1 9.5 -0.7 36 6.2 N 13 19 7 10 1026.6 - 0.0
02/07:00am 14.1 9.1 -1.4 34 6.4 N 15 20 8 11 1026.3 - 0.0
02/06:30am 14.1 8.7 -1.4 34 6.4 N 17 22 9 12 1026.3 - 0.0
02/06:00am 13.9 8.5 -1.0 36 6.2 N 17 22 9 12 1026.4 1026.5 0.0
02/05:30am 13.9 9.3 -1.0 36 6.2 N 13 20 7 11 1025.8 - 0.0
02/05:00am 13.6 9.8 -0.8 37 6.0 NNE 9 15 5 8 1025.7 - 0.0
02/04:30am 13.4 9.6 -0.5 38 5.8 NNE 9 13 5 7 1025.6 - 0.0
02/04:00am 13.5 9.8 0.0 39 5.7 NNE 9 13 5 7 1025.7 - 0.0
02/03:30am 13.2 10.5 0.5 42 5.4 N 4 9 2 5 1025.8 - 0.0
02/03:00am 13.6 10.4 0.9 42 5.5 NE 7 11 4 6 1025.4 1025.6 0.0
02/02:30am 14.0 11.4 1.1 41 5.6 NNE 4 7 2 4 1026.3 - 0.0
02/02:00am 13.3 10.6 2.5 48 4.8 NNE 6 7 3 4 1026.1 - 0.0
02/01:30am 12.1 9.5 4.3 59 3.6 SE 7 9 4 5 1025.8 - 0.0
02/01:00am 13.0 11.4 2.4 48 4.7 CALM 0 0 0 0 1026.0 - 0.0
02/12:30am 12.9 11.4 3.1 51 4.4 CALM 0 0 0 0 1026.4 - 0.0
02/12:00am 13.5 11.9 2.2 46 5.0 CALM 0 0 0 0 1026.6 1026.8 0.0
 
Date/Time
WST
Temp
°C
App
Temp
°C
Dew
Point
Rel
Hum
%
Delta-T
°C
Wind Press
QNH
hPa
Press
MSL
hPa
Rain
since 9 am
mm
Dir
 
Spd
km/h
Gust
km/h
Spd
kts
Gust
kts
01/11:30pm 13.6 11.2 2.4 46 5.0 NNE 4 6 2 3 1026.5 - 0.0
01/11:00pm 13.9 11.1 1.9 44 5.3 NNE 6 7 3 4 1026.6 - 0.0
01/10:30pm 13.6 12.0 2.4 46 5.0 CALM 0 0 0 0 1026.7 - 0.0
01/10:00pm 13.2 11.6 2.7 49 4.7 CALM 0 0 0 0 1026.8 - 0.0
01/09:30pm 12.9 10.8 3.7 53 4.2 NNE 4 6 2 3 1026.7 - 0.0
01/09:00pm 13.7 11.7 4.5 54 4.3 ENE 4 7 2 4 1026.9 1027.1 0.0
01/08:30pm 15.1 13.6 2.8 43 5.6 CALM 0 0 0 0 1027.0 - 0.0
01/08:00pm 14.0 12.9 4.9 54 4.3 CALM 0 0 0 0 1026.8 - 0.0
01/07:30pm 14.9 13.5 3.7 47 5.2 CALM 0 0 0 0 1026.6 - 0.0
01/07:00pm 15.6 13.0 3.0 43 5.8 SE 6 7 3 4 1026.5 - 0.0
01/06:30pm 15.2 12.5 2.7 43 5.7 SSE 6 7 3 4 1026.1 - 0.0
01/06:00pm 16.2 14.8 3.3 42 6.0 CALM 0 0 0 0 1025.9 1026.1 0.0
01/05:30pm 17.5 16.0 3.2 38 6.7 CALM 0 0 0 0 1025.6 - 0.0
01/05:00pm 18.5 16.9 2.3 34 7.5 CALM 0 0 0 0 1025.6 - 0.0
01/04:30pm 19.7 18.0 2.1 31 8.2 CALM 0 6 0 3 1025.5 - 0.0
01/04:00pm 20.2 17.8 -0.1 25 9.1 NNW 2 7 1 4 1025.3 - 0.0
01/03:30pm 20.2 16.2 -2.1 22 9.6 N 9 13 5 7 1025.3 - 0.0
01/03:00pm 20.7 17.1 -1.8 22 9.8 N 7 13 4 7 1025.0 1025.2 0.0
01/02:30pm 20.8 16.5 -2.0 21 9.9 NNW 11 13 6 7 1025.3 - 0.0
01/02:00pm 20.4 15.3 -2.1 22 9.8 N 15 22 8 12 1025.4 - 0.0
01/01:30pm 21.1 16.4 -1.8 21 10.0 N 13 19 7 10 1025.4 - 0.0
01/01:00pm 21.1 16.1 -1.0 22 9.9 N 15 19 8 10 1025.6 - 0.0

Other Formats:

Comma delimited format used in spreadsheet applications
http://www.bom.gov.au/fwo/IDW60801/IDW60801.94637.axf

JavaScript Object Notation format (JSON) in row-major order
http://www.bom.gov.au/fwo/IDW60801/IDW60801.94637.json